Aviation Digital Data Service (ADDS)

Output produced by METARs form (0417 UTC 26 May 2022)
found at http://www.aviationweather.gov/metar/data/
 
KGSO 252339Z 2600/2624 08007KT P6SM OVC018 
     FM260300 06008KT 6SM BR OVC007 
     TEMPO 2608/2612 3SM BR OVC005 
     FM261600 12007KT P6SM SCT007 OVC015 
     FM261900 12007KT P6SM BKN020